Time;durP1;ratioP1;P1;durP2;ratioP2;P2;SDS_P1;SDS_P2;PMS_P1;PMS_P2;Temp;Humidity;BMP_temperature;BMP_pressure;BME280_temperature;BME280_humidity;BME280_pressure;Samples;Min_cycle;Max_cycle;Signal;HPM_P1;HPM_P2
2021/01/11 00:01:27;;;;;;;1999.90;999.90;;;;;;;1.43;76.59;98803.09;4963266;28;20047;-65
2021/01/11 00:03:53;;;;;;;1999.90;999.90;;;;;;;1.36;77.33;98814.16;4964588;28;20594;-65
2021/01/11 00:06:19;;;;;;;1999.90;999.90;;;;;;;1.49;76.50;98810.25;4959196;28;20048;-65
2021/01/11 00:08:45;;;;;;;1999.90;999.90;;;;;;;1.47;76.68;98806.13;4961495;28;20127;-65
2021/01/11 00:11:13;;;;;;;1999.90;999.90;;;;;;;1.70;76.43;98811.28;4959432;28;20508;-65
2021/01/11 00:13:42;;;;;;;1999.90;999.90;;;;;;;1.82;75.76;98799.41;4956270;28;20066;-65
2021/01/11 00:16:10;;;;;;;1999.90;999.90;;;;;;;1.97;75.57;98799.56;4956341;28;20055;-65
2021/01/11 00:18:39;;;;;;;1999.90;999.90;;;;;;;2.01;75.17;98799.84;4960664;28;20051;-65
2021/01/11 00:21:05;;;;;;;1999.90;999.90;;;;;;;1.98;75.15;98797.66;4960358;28;20062;-65
2021/01/11 00:23:32;;;;;;;1999.90;999.90;;;;;;;1.91;75.25;98797.88;4963024;28;20439;-65
2021/01/11 00:25:59;;;;;;;1999.90;999.90;;;;;;;1.97;75.18;98798.75;4959388;28;20525;-65
2021/01/11 00:28:25;;;;;;;1999.90;999.90;;;;;;;1.97;75.32;98796.84;4966634;28;20550;-65
2021/01/11 00:30:51;;;;;;;1999.90;999.90;;;;;;;2.01;74.67;98797.97;4964753;28;20054;-65
2021/01/11 00:33:17;;;;;;;1999.90;999.90;;;;;;;1.97;75.43;98802.28;4968039;28;20043;-65
2021/01/11 00:35:43;;;;;;;1999.90;999.90;;;;;;;1.97;75.13;98807.75;4968122;28;20507;-65
2021/01/11 00:38:10;;;;;;;1999.90;999.90;;;;;;;1.88;75.18;98803.84;4970023;28;20047;-65
2021/01/11 00:40:36;;;;;;;1999.90;999.90;;;;;;;1.97;75.70;98802.28;4967155;28;20689;-65
2021/01/11 00:43:03;;;;;;;1999.90;999.90;;;;;;;1.73;76.03;98810.78;4967912;28;20110;-65
2021/01/11 00:45:29;;;;;;;1999.90;999.90;;;;;;;1.50;77.42;98802.88;4967244;28;20315;-65
2021/01/11 00:47:55;;;;;;;1999.90;999.90;;;;;;;1.22;80.89;98813.75;4965626;28;20052;-65
2021/01/11 00:50:21;;;;;;;1999.90;999.90;;;;;;;1.19;82.00;98821.56;4968656;28;20065;-65
2021/01/11 00:52:48;;;;;;;1999.90;999.90;;;;;;;1.10;83.03;98814.94;4965386;28;20562;-65
2021/01/11 00:55:14;;;;;;;1999.90;999.90;;;;;;;1.29;82.37;98812.72;4962392;28;20046;-65
2021/01/11 00:57:42;;;;;;;1999.90;999.90;;;;;;;1.43;81.83;98810.44;4967058;28;20055;-65
2021/01/11 01:00:10;;;;;;;1999.90;999.90;;;;;;;1.66;80.77;98810.16;4968416;28;20514;-65
2021/01/11 01:02:36;;;;;;;1999.90;999.90;;;;;;;1.93;79.82;98806.59;4965760;28;20051;-65
2021/01/11 01:05:09;;;;;;;1999.90;999.90;;;;;;;2.05;78.62;98810.00;4969239;28;20051;-65
2021/01/11 01:07:40;;;;;;;1999.90;999.90;;;;;;;2.17;77.79;98807.09;4962481;28;20050;-65
2021/01/11 01:10:08;;;;;;;1999.90;999.90;;;;;;;2.15;77.77;98811.19;4967628;28;20046;-65
2021/01/11 01:12:34;;;;;;;1999.90;999.90;;;;;;;1.98;77.86;98809.41;4966163;28;20454;-65
2021/01/11 01:15:04;;;;;;;1999.90;999.90;;;;;;;1.76;78.81;98810.25;4962411;28;20051;-65
2021/01/11 01:17:30;;;;;;;1999.90;999.90;;;;;;;2.08;77.35;98803.19;4960722;28;20054;-65
2021/01/11 01:19:56;;;;;;;1999.90;999.90;;;;;;;2.11;77.35;98808.97;4961874;28;20043;-65
2021/01/11 01:22:22;;;;;;;1999.90;999.90;;;;;;;2.08;77.32;98797.75;4954295;28;20059;-65
2021/01/11 01:24:48;;;;;;;1999.90;999.90;;;;;;;2.31;76.62;98796.59;4965786;28;20475;-65
2021/01/11 01:27:14;;;;;;;1999.90;999.90;;;;;;;1.99;76.28;98794.66;4965095;28;20047;-65
2021/01/11 01:29:40;;;;;;;1999.90;999.90;;;;;;;1.78;76.94;98792.81;4963178;28;20082;-65
2021/01/11 01:32:06;;;;;;;1999.90;999.90;;;;;;;1.94;76.89;98787.25;4967094;28;20456;-65
2021/01/11 01:34:32;;;;;;;1999.90;999.90;;;;;;;1.58;77.46;98783.34;4961691;28;20082;-65
2021/01/11 01:36:58;;;;;;;1999.90;999.90;;;;;;;1.84;77.24;98780.88;4964823;28;20055;-65
2021/01/11 01:39:24;;;;;;;1999.90;999.90;;;;;;;1.96;76.52;98778.81;4967989;28;20381;-65
2021/01/11 01:41:50;;;;;;;1999.90;999.90;;;;;;;1.74;77.19;98776.97;4968912;28;20288;-65
2021/01/11 01:44:17;;;;;;;1999.90;999.90;;;;;;;1.92;76.95;98774.94;4953739;28;20094;-65
2021/01/11 01:46:44;;;;;;;1999.90;999.90;;;;;;;1.74;76.98;98770.69;4958987;28;20426;-65
2021/01/11 01:49:10;;;;;;;1999.90;999.90;;;;;;;1.94;77.04;98767.34;4960129;28;20046;-65
2021/01/11 01:51:39;;;;;;;1999.90;999.90;;;;;;;2.06;75.87;98768.00;4966769;28;20055;-65
2021/01/11 01:54:05;;;;;;;1999.90;999.90;;;;;;;2.16;76.17;98770.00;4966506;28;20096;-65
2021/01/11 01:56:31;;;;;;;1999.90;999.90;;;;;;;1.72;77.86;98773.66;4967046;28;20050;-65
2021/01/11 01:58:58;;;;;;;1999.90;999.90;;;;;;;2.03;76.63;98771.25;4965005;28;20057;-65
2021/01/11 02:01:24;;;;;;;1999.90;999.90;;;;;;;1.94;76.50;98768.16;4962039;28;20382;-65
2021/01/11 02:03:51;;;;;;;1999.90;999.90;;;;;;;2.02;76.55;98761.41;4967827;28;20503;-65
2021/01/11 02:06:17;;;;;;;1999.90;999.90;;;;;;;1.98;76.61;98762.19;4967141;28;20059;-65
2021/01/11 02:08:46;;;;;;;1999.90;999.90;;;;;;;2.11;76.11;98759.03;4962344;28;20050;-65
2021/01/11 02:11:23;;;;;;;1999.90;999.90;;;;;;;2.21;75.88;98756.38;4962215;28;20244;-65
2021/01/11 02:14:04;;;;;;;1999.90;999.90;;;;;;;2.21;75.48;98750.09;4965575;28;20474;-65
2021/01/11 02:16:43;;;;;;;1999.90;999.90;;;;;;;1.71;76.45;98747.50;4965859;28;20054;-65
2021/01/11 02:19:16;;;;;;;1999.90;999.90;;;;;;;1.94;76.81;98748.25;4966872;28;20050;-65
2021/01/11 02:21:51;;;;;;;1999.90;999.90;;;;;;;1.66;76.60;98747.44;4963567;28;20055;-65
2021/01/11 02:24:55;;;;;;;1999.90;999.90;;;;;;;1.64;77.89;98749.63;4966300;28;20484;-64
2021/01/11 02:27:37;;;;;;;1999.90;999.90;;;;;;;1.87;76.45;98747.63;4974693;28;20372;-65
2021/01/11 02:30:09;;;;;;;1999.90;999.90;;;;;;;1.89;76.20;98743.59;4966533;28;20058;-65
2021/01/11 02:32:45;;;;;;;1999.90;999.90;;;;;;;1.89;76.49;98740.00;4967107;28;20034;-65
2021/01/11 02:35:12;;;;;;;1999.90;999.90;;;;;;;1.79;76.40;98745.38;4965485;28;20054;-65
2021/01/11 02:37:39;;;;;;;1999.90;999.90;;;;;;;1.21;77.35;98741.25;4967739;28;20058;-65
2021/01/11 02:40:08;;;;;;;1999.90;999.90;;;;;;;0.79;79.04;98744.53;4968316;28;20066;-65
2021/01/11 02:42:34;;;;;;;1999.90;999.90;;;;;;;1.37;77.69;98738.69;4967211;28;20067;-65
2021/01/11 02:45:00;;;;;;;1999.90;999.90;;;;;;;1.38;77.23;98740.34;4968343;28;20059;-65
2021/01/11 02:47:32;;;;;;;1999.90;999.90;;;;;;;1.35;77.03;98732.66;4958620;28;20353;-65
2021/01/11 02:50:00;;;;;;;1999.90;999.90;;;;;;;1.56;76.86;98736.44;4966894;28;20062;-65
2021/01/11 02:52:54;;;;;;;1999.90;999.90;;;;;;;1.55;76.91;98729.34;4964188;28;20539;-65
2021/01/11 02:56:08;;;;;;;1999.90;999.90;;;;;;;1.62;77.05;98723.69;4965841;28;20096;-65
2021/01/11 02:58:52;;;;;;;1999.90;999.90;;;;;;;1.57;77.13;98732.63;4942156;29;20047;-65
2021/01/11 03:01:20;;;;;;;1999.90;999.90;;;;;;;1.68;76.84;98734.38;4940758;29;20058;-65
2021/01/11 03:03:48;;;;;;;1999.90;999.90;;;;;;;1.54;77.23;98733.16;4949408;28;20405;-65
2021/01/11 03:06:14;;;;;;;1999.90;999.90;;;;;;;1.55;77.43;98735.63;4956991;28;20368;-65
2021/01/11 03:08:40;;;;;;;1999.90;999.90;;;;;;;1.64;76.82;98721.50;4963251;28;20054;-65
2021/01/11 03:11:06;;;;;;;1999.90;999.90;;;;;;;1.55;76.99;98726.63;4965457;28;20280;-65
2021/01/11 03:13:32;;;;;;;1999.90;999.90;;;;;;;1.24;78.82;98729.03;4965688;28;20039;-65
2021/01/11 03:15:59;;;;;;;1999.90;999.90;;;;;;;1.50;78.13;98727.38;4964914;28;20058;-65
2021/01/11 03:18:25;;;;;;;1999.90;999.90;;;;;;;1.73;77.20;98718.06;4958677;28;20051;-65
2021/01/11 03:20:51;;;;;;;1999.90;999.90;;;;;;;1.74;77.28;98721.59;4964804;28;20050;-65
2021/01/11 03:23:17;;;;;;;1999.90;999.90;;;;;;;1.82;77.31;98717.59;4966908;28;20428;-65
2021/01/11 03:25:43;;;;;;;1999.90;999.90;;;;;;;1.98;76.43;98719.38;4963595;28;20059;-65
2021/01/11 03:28:09;;;;;;;1999.90;999.90;;;;;;;1.93;76.63;98720.13;4963293;28;20551;-65
2021/01/11 03:30:35;;;;;;;1999.90;999.90;;;;;;;2.07;76.38;98708.78;4964558;28;20054;-65
2021/01/11 03:33:02;;;;;;;1999.90;999.90;;;;;;;1.98;76.06;98708.47;4964154;28;20054;-65
2021/01/11 03:35:28;;;;;;;1999.90;999.90;;;;;;;1.99;76.23;98707.38;4964305;28;20057;-65
2021/01/11 03:37:54;;;;;;;1999.90;999.90;;;;;;;2.10;75.96;98708.28;4967008;28;20065;-65
2021/01/11 03:40:21;;;;;;;1999.90;999.90;;;;;;;1.98;76.39;98705.75;4965919;28;20113;-65
2021/01/11 03:42:47;;;;;;;1999.90;999.90;;;;;;;2.05;76.18;98703.59;4966418;28;20047;-65
2021/01/11 03:45:13;;;;;;;1999.90;999.90;;;;;;;1.97;76.29;98703.28;4963306;28;20058;-65
2021/01/11 03:47:39;;;;;;;1999.90;999.90;;;;;;;2.03;76.48;98699.50;4964027;28;20408;-65
2021/01/11 03:50:07;;;;;;;1999.90;999.90;;;;;;;2.05;76.38;98705.50;4966618;28;20054;-65
2021/01/11 03:52:37;;;;;;;1999.90;999.90;;;;;;;1.96;76.22;98696.97;4967326;28;20046;-65
2021/01/11 03:55:04;;;;;;;1999.90;999.90;;;;;;;2.04;76.16;98701.13;4966619;28;20081;-65
2021/01/11 03:57:31;;;;;;;1999.90;999.90;;;;;;;1.99;76.72;98701.91;4965002;28;20046;-65
2021/01/11 03:59:58;;;;;;;1999.90;999.90;;;;;;;1.88;76.88;98700.19;4960363;28;20054;-65
2021/01/11 04:02:24;;;;;;;1999.90;999.90;;;;;;;1.73;76.98;98698.97;4966038;28;20389;-65
2021/01/11 04:04:51;;;;;;;1999.90;999.90;;;;;;;1.86;77.10;98702.34;4965979;28;20054;-65
2021/01/11 04:07:17;;;;;;;1999.90;999.90;;;;;;;1.90;77.04;98704.28;4963326;28;20047;-65
2021/01/11 04:09:43;;;;;;;1999.90;999.90;;;;;;;1.94;76.58;98704.59;4957113;28;20059;-65
2021/01/11 04:12:09;;;;;;;1999.90;999.90;;;;;;;2.02;76.11;98706.84;4961528;28;20058;-65
2021/01/11 04:14:35;;;;;;;1999.90;999.90;;;;;;;2.00;76.24;98706.28;4959256;28;20394;-65
2021/01/11 04:17:02;;;;;;;1999.90;999.90;;;;;;;1.80;76.32;98703.38;4959335;28;20407;-65
2021/01/11 04:19:28;;;;;;;1999.90;999.90;;;;;;;1.92;76.31;98695.84;4963657;28;20343;-65
2021/01/11 04:21:55;;;;;;;1999.90;999.90;;;;;;;1.65;76.49;98699.44;4959893;28;20143;-65
2021/01/11 04:24:21;;;;;;;1999.90;999.90;;;;;;;1.00;78.36;98704.78;4960902;28;20333;-65
2021/01/11 04:26:47;;;;;;;1999.90;999.90;;;;;;;1.22;78.43;98704.75;4957096;28;20106;-65
2021/01/11 04:29:13;;;;;;;1999.90;999.90;;;;;;;1.55;77.28;98702.09;4961650;28;20050;-65
2021/01/11 04:31:40;;;;;;;1999.90;999.90;;;;;;;1.76;76.59;98709.38;4959316;28;20443;-65
2021/01/11 04:34:06;;;;;;;1999.90;999.90;;;;;;;1.70;76.74;98709.59;4960080;28;20039;-65
2021/01/11 04:36:35;;;;;;;1999.90;999.90;;;;;;;1.42;77.67;98705.22;4959296;28;20106;-65
2021/01/11 04:39:02;;;;;;;1999.90;999.90;;;;;;;1.54;77.40;98714.06;4961759;28;20078;-65
2021/01/11 04:41:34;;;;;;;1999.90;999.90;;;;;;;1.46;77.12;98714.50;4959993;28;20055;-65
2021/01/11 04:44:06;;;;;;;1999.90;999.90;;;;;;;1.51;76.79;98706.41;4959768;28;20527;-65
2021/01/11 04:46:33;;;;;;;1999.90;999.90;;;;;;;1.53;76.92;98701.50;4962676;28;20237;-65
2021/01/11 04:48:59;;;;;;;1999.90;999.90;;;;;;;1.79;76.24;98708.03;4963986;28;20138;-65
2021/01/11 04:51:25;;;;;;;1999.90;999.90;;;;;;;1.84;75.96;98707.25;4963100;28;20696;-65
2021/01/11 04:53:52;;;;;;;1999.90;999.90;;;;;;;1.62;76.30;98710.84;4964561;28;20039;-65
2021/01/11 04:56:19;;;;;;;1999.90;999.90;;;;;;;1.79;75.87;98712.63;4965747;28;20058;-65
2021/01/11 04:58:57;;;;;;;1999.90;999.90;;;;;;;1.88;75.99;98708.38;4957940;28;20082;-65
2021/01/11 05:01:26;;;;;;;1999.90;999.90;;;;;;;1.76;75.49;98709.38;4962333;28;20347;-65
2021/01/11 05:03:57;;;;;;;1999.90;999.90;;;;;;;1.67;76.06;98708.19;4965118;28;20046;-65
2021/01/11 05:06:23;;;;;;;1999.90;999.90;;;;;;;1.81;75.78;98710.50;4961599;28;20050;-65
2021/01/11 05:08:49;;;;;;;1999.90;999.90;;;;;;;1.89;75.75;98707.28;4963800;28;20054;-65
2021/01/11 05:11:16;;;;;;;1999.90;999.90;;;;;;;1.79;75.74;98718.09;4956546;28;20566;-65
2021/01/11 05:13:42;;;;;;;1999.90;999.90;;;;;;;1.54;76.35;98714.88;4956622;28;20050;-65
2021/01/11 05:16:12;;;;;;;1999.90;999.90;;;;;;;1.20;76.75;98703.34;4962308;28;20051;-65
2021/01/11 05:18:40;;;;;;;1999.90;999.90;;;;;;;1.09;77.51;98710.59;4994527;28;20534;-65
2021/01/11 05:21:08;;;;;;;1999.90;999.90;;;;;;;1.39;76.97;98712.81;4964147;28;20054;-65
2021/01/11 05:23:37;;;;;;;1999.90;999.90;;;;;;;1.56;76.81;98711.91;4965312;28;20608;-65
2021/01/11 05:26:14;;;;;;;1999.90;999.90;;;;;;;1.49;76.50;98714.00;4964094;28;20058;-65
2021/01/11 05:28:41;;;;;;;1999.90;999.90;;;;;;;1.49;76.90;98708.56;4965006;28;20125;-65
2021/01/11 05:31:08;;;;;;;1999.90;999.90;;;;;;;1.34;77.47;98715.50;4964705;28;20467;-65
2021/01/11 05:33:35;;;;;;;1999.90;999.90;;;;;;;1.48;76.88;98713.19;4965020;28;20109;-65
2021/01/11 05:36:13;;;;;;;1999.90;999.90;;;;;;;1.38;76.96;98711.16;4964708;28;20082;-65
2021/01/11 05:38:46;;;;;;;1999.90;999.90;;;;;;;1.53;76.17;98709.69;4964077;28;20050;-65
2021/01/11 05:41:15;;;;;;;1999.90;999.90;;;;;;;1.44;76.67;98713.97;4960118;28;20483;-65
2021/01/11 05:43:41;;;;;;;1999.90;999.90;;;;;;;1.39;76.87;98715.56;4957254;28;20118;-65
2021/01/11 05:46:25;;;;;;;1999.90;999.90;;;;;;;0.98;78.46;98706.94;4956039;28;20512;-65
2021/01/11 05:49:06;;;;;;;1999.90;999.90;;;;;;;0.85;78.72;98715.50;4958552;28;20059;-65
2021/01/11 05:51:33;;;;;;;1999.90;999.90;;;;;;;0.92;79.24;98713.38;4958254;28;20091;-65
2021/01/11 05:54:00;;;;;;;1999.90;999.90;;;;;;;1.10;78.42;98708.69;4964850;28;20097;-65
2021/01/11 05:56:27;;;;;;;1999.90;999.90;;;;;;;1.33;77.77;98715.75;4961947;28;20054;-65
2021/01/11 05:59:03;;;;;;;1999.90;999.90;;;;;;;1.32;77.74;98716.84;4965787;28;20061;-65
2021/01/11 06:01:31;;;;;;;1999.90;999.90;;;;;;;1.50;77.15;98718.38;4965217;28;20078;-65
2021/01/11 06:04:03;;;;;;;1999.90;999.90;;;;;;;1.50;76.72;98713.75;4963934;28;20109;-65
2021/01/11 06:06:29;;;;;;;1999.90;999.90;;;;;;;1.23;77.62;98714.56;4954297;28;20221;-65
2021/01/11 06:08:55;;;;;;;1999.90;999.90;;;;;;;1.44;77.24;98713.97;4965324;28;20058;-65
2021/01/11 06:11:27;;;;;;;1999.90;999.90;;;;;;;1.57;76.66;98716.28;4965156;28;20054;-65
2021/01/11 06:13:58;;;;;;;1999.90;999.90;;;;;;;1.16;77.84;98716.69;4965508;28;20054;-65
2021/01/11 06:16:26;;;;;;;1999.90;999.90;;;;;;;0.90;79.12;98709.28;4962666;28;20050;-65
2021/01/11 06:18:53;;;;;;;1999.90;999.90;;;;;;;0.54;80.52;98720.53;4965611;28;20145;-65
2021/01/11 06:21:20;;;;;;;1999.90;999.90;;;;;;;0.78;79.53;98714.84;4964992;28;20065;-65
2021/01/11 06:23:47;;;;;;;1999.90;999.90;;;;;;;0.53;81.03;98722.41;4961310;28;20051;-65
2021/01/11 06:26:25;;;;;;;1999.90;999.90;;;;;;;0.70;80.61;98725.09;4965296;28;20046;-65
2021/01/11 06:28:52;;;;;;;1999.90;999.90;;;;;;;0.77;79.87;98729.53;4965140;28;20051;-65
2021/01/11 06:31:18;;;;;;;1999.90;999.90;;;;;;;0.70;79.94;98725.09;4964531;28;20046;-65
2021/01/11 06:33:45;;;;;;;1999.90;999.90;;;;;;;0.77;79.80;98730.34;4963419;28;20396;-65
2021/01/11 06:36:20;;;;;;;1999.90;999.90;;;;;;;1.11;78.84;98726.69;4956672;28;20054;-65
2021/01/11 06:38:48;;;;;;;1999.90;999.90;;;;;;;0.91;79.25;98725.38;4959282;28;20059;-65
2021/01/11 06:41:17;;;;;;;1999.90;999.90;;;;;;;0.44;80.98;98731.25;4961980;28;20059;-65
2021/01/11 06:43:44;;;;;;;1999.90;999.90;;;;;;;0.27;81.46;98732.13;4961001;28;20636;-65
2021/01/11 06:46:42;;;;;;;1999.90;999.90;;;;;;;0.67;80.78;98736.50;4964658;28;20050;-65
2021/01/11 06:49:22;;;;;;;1999.90;999.90;;;;;;;0.97;79.37;98728.94;4958995;28;20118;-65
2021/01/11 06:51:57;;;;;;;1999.90;999.90;;;;;;;1.04;79.83;98741.34;4952610;28;20112;-65
2021/01/11 06:54:34;;;;;;;1999.90;999.90;;;;;;;0.69;80.22;98736.25;4962422;28;20054;-65
2021/01/11 06:57:12;;;;;;;1999.90;999.90;;;;;;;0.88;80.14;98736.78;4951535;28;20059;-65
2021/01/11 06:59:40;;;;;;;1999.90;999.90;;;;;;;0.67;80.19;98741.94;4963187;28;20055;-65
2021/01/11 07:02:21;;;;;;;1999.90;999.90;;;;;;;0.89;79.68;98732.94;4959332;28;20114;-66
2021/01/11 07:04:49;;;;;;;1999.90;999.90;;;;;;;0.40;81.03;98741.00;4957869;28;20047;-66
2021/01/11 07:07:23;;;;;;;1999.90;999.90;;;;;;;0.32;81.91;98737.63;4965150;28;20136;-65
2021/01/11 07:09:52;;;;;;;1999.90;999.90;;;;;;;0.19;81.85;98737.97;4960363;28;20166;-66
2021/01/11 07:12:19;;;;;;;1999.90;999.90;;;;;;;0.53;81.42;98748.81;4964573;28;20054;-66
2021/01/11 07:14:53;;;;;;;1999.90;999.90;;;;;;;0.72;80.95;98743.91;4963681;28;20114;-66
2021/01/11 07:17:36;;;;;;;1999.90;999.90;;;;;;;0.17;81.99;98748.28;4975669;28;20059;-66
2021/01/11 07:20:03;;;;;;;1999.90;999.90;;;;;;;0.30;82.04;98752.56;4961418;28;20059;-65
2021/01/11 07:22:29;;;;;;;1999.90;999.90;;;;;;;0.41;81.37;98748.09;4964221;28;20058;-66
2021/01/11 07:24:56;;;;;;;1999.90;999.90;;;;;;;0.66;80.42;98745.72;4963623;28;20051;-66
2021/01/11 07:27:22;;;;;;;1999.90;999.90;;;;;;;0.45;80.96;98735.63;4964593;28;20121;-65
2021/01/11 07:29:48;;;;;;;1999.90;999.90;;;;;;;0.51;80.54;98742.81;4963880;28;20108;-65
2021/01/11 07:32:14;;;;;;;1999.90;999.90;;;;;;;0.02;81.58;98748.84;4964392;28;20085;-66
2021/01/11 07:34:41;;;;;;;1999.90;999.90;;;;;;;0.20;81.84;98745.06;4958890;28;20078;-65
2021/01/11 07:37:12;;;;;;;1999.90;999.90;;;;;;;0.63;79.71;98745.41;4963163;28;20058;-66
2021/01/11 07:39:39;;;;;;;1999.90;999.90;;;;;;;0.52;80.21;98749.88;4963562;28;20066;-66
2021/01/11 07:42:06;;;;;;;1999.90;999.90;;;;;;;0.80;79.15;98750.81;4955003;28;20871;-65
2021/01/11 07:44:37;;;;;;;1999.90;999.90;;;;;;;0.79;79.03;98743.72;4960165;28;20456;-66
2021/01/11 07:47:07;;;;;;;1999.90;999.90;;;;;;;1.01;78.82;98749.16;4960283;28;20097;-66
2021/01/11 07:49:37;;;;;;;1999.90;999.90;;;;;;;0.97;78.52;98748.03;4959867;28;20085;-66
2021/01/11 07:52:10;;;;;;;1999.90;999.90;;;;;;;0.94;78.70;98757.53;4958528;28;20051;-66
2021/01/11 07:54:37;;;;;;;1999.90;999.90;;;;;;;1.07;78.46;98750.06;4963240;28;20046;-66
2021/01/11 07:57:26;;;;;;;1999.90;999.90;;;;;;;1.13;78.27;98752.59;4962678;28;20512;-66
2021/01/11 08:00:11;;;;;;;1999.90;999.90;;;;;;;1.19;77.98;98758.91;4963003;28;20590;-66
2021/01/11 08:02:38;;;;;;;1999.90;999.90;;;;;;;1.25;77.62;98763.38;4962040;28;20543;-66
2021/01/11 08:05:21;;;;;;;1999.90;999.90;;;;;;;0.16;81.32;98771.09;4963439;28;20692;-65
2021/01/11 08:08:08;;;;;;;1999.90;999.90;;;;;;;-0.62;84.49;98768.94;4962218;28;20051;-65
2021/01/11 08:10:35;;;;;;;1999.90;999.90;;;;;;;-0.38;85.87;98769.63;4962336;28;20051;-65
2021/01/11 08:13:05;;;;;;;1999.90;999.90;;;;;;;0.17;83.42;98770.84;4962196;28;20492;-66
2021/01/11 08:15:32;;;;;;;1999.90;999.90;;;;;;;0.76;81.03;98775.00;4962396;28;20510;-66
2021/01/11 08:18:03;;;;;;;1999.90;999.90;;;;;;;0.58;80.94;98770.66;4961871;28;20046;-66
2021/01/11 08:20:30;;;;;;;1999.90;999.90;;;;;;;0.42;81.83;98772.34;4962384;28;20050;-65
2021/01/11 08:22:56;;;;;;;1999.90;999.90;;;;;;;1.00;79.79;98761.97;4961520;28;20054;-66
2021/01/11 08:25:25;;;;;;;1999.90;999.90;;;;;;;1.20;79.08;98771.47;4963128;28;20129;-65
2021/01/11 08:27:53;;;;;;;1999.90;999.90;;;;;;;1.42;78.71;98765.19;4962476;28;20055;-66
2021/01/11 08:30:24;;;;;;;1999.90;999.90;;;;;;;1.51;78.12;98772.63;4962619;28;20047;-66
2021/01/11 08:32:51;;;;;;;1999.90;999.90;;;;;;;1.58;77.97;98773.28;4961881;28;20563;-66
2021/01/11 08:35:20;;;;;;;1999.90;999.90;;;;;;;1.56;77.36;98771.88;4962678;28;20050;-66
2021/01/11 08:37:48;;;;;;;1999.90;999.90;;;;;;;1.30;77.68;98757.97;4962647;28;20057;-66
2021/01/11 08:40:19;;;;;;;1999.90;999.90;;;;;;;1.57;78.03;98763.44;4962064;28;20047;-66
2021/01/11 08:42:47;;;;;;;1999.90;999.90;;;;;;;2.01;76.37;98765.22;4961947;28;20055;-66
2021/01/11 08:45:42;;;;;;;1999.90;999.90;;;;;;;2.18;76.01;98769.75;4962380;28;20042;-66
2021/01/11 08:48:16;;;;;;;1999.90;999.90;;;;;;;2.17;75.32;98768.06;4958565;28;20117;-66
2021/01/11 08:50:50;;;;;;;1999.90;999.90;;;;;;;1.88;76.03;98771.13;4965495;28;20050;-66
2021/01/11 08:53:17;;;;;;;1999.90;999.90;;;;;;;2.00;75.90;98769.03;4966331;28;20086;-66
2021/01/11 08:56:07;;;;;;;1999.90;999.90;;;;;;;2.00;76.00;98777.22;4965104;28;20051;-66
2021/01/11 08:58:37;;;;;;;1999.90;999.90;;;;;;;2.24;75.18;98779.59;4965014;28;20058;-66
2021/01/11 09:01:13;;;;;;;1999.90;999.90;;;;;;;1.91;76.45;98782.31;4965484;28;20384;-66
2021/01/11 09:03:46;;;;;;;1999.90;999.90;;;;;;;1.90;76.22;98780.66;4964681;28;20050;-66
2021/01/11 09:06:12;;;;;;;1999.90;999.90;;;;;;;1.77;77.46;98778.34;4965302;28;20055;-66
2021/01/11 09:08:39;;;;;;;1999.90;999.90;;;;;;;2.18;76.58;98781.47;4966055;28;20368;-66
2021/01/11 09:11:11;;;;;;;1999.90;999.90;;;;;;;2.32;75.76;98781.84;4965478;28;20051;-66
2021/01/11 09:13:37;;;;;;;1999.90;999.90;;;;;;;2.50;75.79;98790.72;4965573;28;20046;-66
2021/01/11 09:16:16;;;;;;;1999.90;999.90;;;;;;;2.62;75.12;98785.88;4964732;28;20051;-66
2021/01/11 09:18:42;;;;;;;1999.90;999.90;;;;;;;2.64;75.03;98790.00;4965573;28;20381;-66
2021/01/11 09:21:08;;;;;;;1999.90;999.90;;;;;;;2.50;75.49;98788.81;4964349;28;20055;-66
2021/01/11 09:23:34;;;;;;;1999.90;999.90;;;;;;;2.40;75.75;98795.00;4965589;28;20046;-66
2021/01/11 09:26:01;;;;;;;1999.90;999.90;;;;;;;2.05;76.96;98790.88;4965078;28;20122;-66
2021/01/11 09:28:27;;;;;;;1999.90;999.90;;;;;;;1.85;77.34;98793.44;4965090;28;20471;-66
2021/01/11 09:30:54;;;;;;;1999.90;999.90;;;;;;;1.49;78.29;98784.88;4964828;28;20058;-66
2021/01/11 09:33:21;;;;;;;1999.90;999.90;;;;;;;1.61;78.49;98785.56;4965285;28;20056;-66
2021/01/11 09:35:47;;;;;;;1999.90;999.90;;;;;;;1.75;77.58;98778.59;4965672;28;20087;-65
2021/01/11 09:38:15;;;;;;;1999.90;999.90;;;;;;;1.61;77.96;98780.13;4964846;28;20109;-66
2021/01/11 09:40:41;;;;;;;1999.90;999.90;;;;;;;1.57;78.27;98787.97;4964956;28;20531;-66
2021/01/11 09:43:09;;;;;;;1999.90;999.90;;;;;;;1.66;78.40;98785.63;4964876;28;20055;-66
2021/01/11 09:45:35;;;;;;;1999.90;999.90;;;;;;;1.61;78.10;98782.84;4964705;28;20082;-66
2021/01/11 09:48:01;;;;;;;1999.90;999.90;;;;;;;1.44;79.08;98777.47;4965569;28;20661;-66
2021/01/11 09:50:27;;;;;;;1999.90;999.90;;;;;;;2.02;77.93;98766.03;4964606;28;20042;-66
2021/01/11 09:52:54;;;;;;;1999.90;999.90;;;;;;;2.48;76.64;98777.31;4965616;28;20082;-66
2021/01/11 09:55:20;;;;;;;1999.90;999.90;;;;;;;2.43;76.22;98774.56;4965069;28;20491;-66
2021/01/11 09:57:46;;;;;;;1999.90;999.90;;;;;;;2.39;76.32;98779.72;4964661;28;20480;-66
2021/01/11 10:00:15;;;;;;;1999.90;999.90;;;;;;;1.86;77.74;98774.09;4963746;28;20054;-66
2021/01/11 10:02:50;;;;;;;1999.90;999.90;;;;;;;1.83;77.51;98774.63;4964130;28;20107;-66
2021/01/11 10:05:17;;;;;;;1999.90;999.90;;;;;;;2.10;76.96;98769.13;4965397;28;20046;-66
2021/01/11 10:07:45;;;;;;;1999.90;999.90;;;;;;;2.50;76.44;98766.13;4963123;28;20208;-66
2021/01/11 10:10:12;;;;;;;1999.90;999.90;;;;;;;2.71;75.69;98770.66;4964836;28;20054;-66
2021/01/11 10:12:38;;;;;;;1999.90;999.90;;;;;;;2.91;74.84;98769.13;4964454;28;20125;-66
2021/01/11 10:15:06;;;;;;;1999.90;999.90;;;;;;;2.72;75.11;98764.09;4963608;28;20241;-65
2021/01/11 10:17:32;;;;;;;1999.90;999.90;;;;;;;2.79;74.88;98756.50;4964603;28;20097;-67
2021/01/11 10:19:58;;;;;;;1999.90;999.90;;;;;;;2.80;75.14;98754.59;4964715;28;20055;-67
2021/01/11 10:22:24;;;;;;;1999.90;999.90;;;;;;;3.10;73.88;98748.44;4963807;28;20467;-67
2021/01/11 10:24:50;;;;;;;1999.90;999.90;;;;;;;3.06;73.71;98750.06;4963691;28;20109;-67
2021/01/11 10:27:19;;;;;;;1999.90;999.90;;;;;;;2.92;73.75;98752.47;4964585;28;20234;-67
2021/01/11 10:29:45;;;;;;;1999.90;999.90;;;;;;;2.67;74.62;98753.16;4963790;28;20078;-67
2021/01/11 10:32:12;;;;;;;1999.90;999.90;;;;;;;2.79;74.83;98742.84;4964506;28;20057;-67
2021/01/11 10:34:38;;;;;;;1999.90;999.90;;;;;;;2.65;75.18;98747.16;4963454;28;20123;-67
2021/01/11 10:37:04;;;;;;;1999.90;999.90;;;;;;;2.78;75.06;98741.22;4963630;28;20051;-64
2021/01/11 10:39:30;;;;;;;1999.90;999.90;;;;;;;2.87;74.51;98740.69;4963989;28;20129;-64
2021/01/11 10:41:57;;;;;;;1999.90;999.90;;;;;;;2.80;74.96;98733.56;4963888;28;20484;-65
2021/01/11 10:44:25;;;;;;;1999.90;999.90;;;;;;;3.24;73.97;98737.84;4964064;28;20061;-64
2021/01/11 10:46:59;;;;;;;1999.90;999.90;;;;;;;3.44;73.25;98728.88;4964167;28;20061;-65
2021/01/11 10:49:27;;;;;;;1999.90;999.90;;;;;;;3.52;72.66;98725.59;4964219;28;20562;-65
2021/01/11 10:51:55;;;;;;;1999.90;999.90;;;;;;;3.46;72.72;98723.97;4963496;28;20129;-64
2021/01/11 10:54:25;;;;;;;1999.90;999.90;;;;;;;3.60;71.94;98731.66;4963506;28;20500;-65
2021/01/11 10:56:52;;;;;;;1999.90;999.90;;;;;;;3.57;71.86;98721.25;4963652;28;20054;-65
2021/01/11 10:59:19;;;;;;;1999.90;999.90;;;;;;;3.47;72.17;98716.59;4963585;28;20051;-65
2021/01/11 11:01:51;;;;;;;1999.90;999.90;;;;;;;3.27;72.54;98714.63;4963320;28;20063;-65
2021/01/11 11:04:21;;;;;;;1999.90;999.90;;;;;;;3.25;72.37;98709.41;4963222;28;20157;-65
2021/01/11 11:06:47;;;;;;;1999.90;999.90;;;;;;;3.44;72.15;98703.44;4962819;28;20055;-65
2021/01/11 11:09:13;;;;;;;1999.90;999.90;;;;;;;3.61;71.68;98708.69;4962936;28;20592;-65
2021/01/11 11:11:39;;;;;;;1999.90;999.90;;;;;;;3.55;71.29;98704.31;4963391;28;20065;-65